createdAt,value
2023-01-02T00:00:28.659Z,4.43
2023-01-02T00:05:28.582Z,4.31
2023-01-02T00:10:28.580Z,5.06
2023-01-02T00:15:28.573Z,4.68
2023-01-02T00:20:28.593Z,4.18
2023-01-02T00:25:28.560Z,4.5
2023-01-02T00:30:32.389Z,4.87
2023-01-02T00:35:28.612Z,5.43
2023-01-02T00:40:28.590Z,5.56
2023-01-02T00:45:28.589Z,5.56
2023-01-02T00:50:28.609Z,5.93
2023-01-02T00:55:28.594Z,6.31
2023-01-02T01:00:28.596Z,6.18
2023-01-02T01:05:28.770Z,6.18
2023-01-02T01:10:28.582Z,6
2023-01-02T01:15:28.708Z,5.75
2023-01-02T01:20:28.520Z,5.62
2023-01-02T01:25:28.517Z,5.75
2023-01-02T01:30:28.504Z,6.12
2023-01-02T01:35:28.515Z,6
2023-01-02T01:40:28.538Z,6.25
2023-01-02T01:45:28.577Z,6.43
2023-01-02T01:55:28.539Z,6.68
2023-01-02T02:00:28.494Z,6.62
2023-01-02T02:05:28.531Z,6.62
2023-01-02T02:10:28.544Z,7.06
2023-01-02T02:15:28.566Z,6.81
2023-01-02T02:35:28.761Z,6.93
2023-01-02T02:40:28.559Z,6.81
2023-01-02T02:45:28.600Z,6.56
2023-01-02T03:05:28.447Z,5.75
2023-01-02T03:15:28.508Z,5.81
2023-01-02T03:20:28.441Z,5.62
2023-01-02T03:25:28.448Z,5.81
2023-01-02T03:30:28.520Z,6.25
2023-01-02T03:35:28.443Z,6.37
2023-01-02T03:40:28.431Z,6.18
2023-01-02T03:45:28.441Z,6.31
2023-01-02T03:50:28.444Z,6.68
2023-01-02T03:55:28.428Z,6.68
2023-01-02T04:00:28.403Z,7.06
2023-01-02T04:05:28.417Z,6.93
2023-01-02T04:10:28.408Z,6.87
2023-01-02T04:15:28.407Z,6.62
2023-01-02T04:20:28.389Z,6.62
2023-01-02T04:25:28.396Z,6.62
2023-01-02T04:30:28.388Z,6.5
2023-01-02T04:35:28.376Z,6.18
2023-01-02T04:40:28.394Z,5.93
2023-01-02T04:45:28.389Z,6.31
2023-01-02T04:50:28.376Z,6.12
2023-01-02T04:55:28.367Z,5.93
2023-01-02T05:00:28.351Z,6.18
2023-01-02T05:05:28.358Z,6.06
2023-01-02T05:10:28.370Z,5.81
2023-01-02T05:15:28.336Z,5.75
2023-01-02T05:20:28.355Z,5.31
2023-01-02T05:25:28.368Z,5.25
2023-01-02T05:30:28.384Z,4.56
2023-01-02T05:35:32.376Z,4.18
2023-01-02T05:40:28.346Z,4.25
2023-01-02T05:45:28.329Z,4.06
2023-01-02T05:50:28.321Z,4
2023-01-02T05:55:28.333Z,3.75
2023-01-02T06:00:28.348Z,4.31
2023-01-02T06:05:28.307Z,4.56
2023-01-02T06:10:28.413Z,4.37
2023-01-02T06:15:28.296Z,4.81
2023-01-02T06:20:28.305Z,4.56
2023-01-02T06:25:28.438Z,3.56
2023-01-02T06:30:28.411Z,3.68
2023-01-02T06:35:28.310Z,3.5
2023-01-02T06:40:28.301Z,3.68
2023-01-02T06:45:28.300Z,3.5
2023-01-02T06:50:34.585Z,3.5
2023-01-02T06:55:28.298Z,3.68
2023-01-02T07:00:28.267Z,3.93
2023-01-02T07:05:28.279Z,3.87
2023-01-02T07:10:28.277Z,3.81
2023-01-02T07:15:28.267Z,4.43
2023-01-02T07:20:28.434Z,4.31
2023-01-02T07:25:28.278Z,4.62
2023-01-02T07:30:28.246Z,5
2023-01-02T07:35:28.264Z,5.37
2023-01-02T07:40:32.058Z,5.75
2023-01-02T07:45:28.315Z,4.93
2023-01-02T07:50:28.269Z,4.87
2023-01-02T07:55:28.255Z,5.12
2023-01-02T08:00:28.359Z,5.06
2023-01-02T08:05:28.221Z,5.81
2023-01-02T08:10:28.303Z,6.06
2023-01-02T08:15:28.252Z,6.25
2023-01-02T08:20:28.216Z,6.37
2023-01-02T08:25:28.216Z,6.93
2023-01-02T08:30:28.234Z,7.25
2023-01-02T08:35:37.710Z,7.56
2023-01-02T08:40:28.237Z,7.56
2023-01-02T08:45:28.206Z,7.68
2023-01-02T08:50:28.200Z,8.06
2023-01-02T08:55:28.216Z,8.56
2023-01-02T09:00:28.188Z,8.87
2023-01-02T09:05:28.224Z,8.75
2023-01-02T09:10:28.192Z,8.93
2023-01-02T09:15:28.251Z,9.37
2023-01-02T09:20:28.192Z,9.93
2023-01-02T09:25:28.203Z,10
2023-01-02T09:30:28.167Z,9.56
2023-01-02T09:35:28.171Z,9.81
2023-01-02T09:40:28.200Z,10.18
2023-01-02T09:45:28.157Z,10.5
2023-01-02T09:50:28.200Z,10.56
2023-01-02T09:55:28.133Z,10.62
2023-01-02T10:00:28.167Z,10.62
2023-01-02T10:05:28.127Z,10.62
2023-01-02T10:10:28.170Z,10.75
2023-01-02T10:15:28.115Z,10.93
2023-01-02T10:20:28.152Z,10.87
2023-01-02T10:25:28.130Z,10.93
2023-01-02T10:30:28.105Z,11.31
2023-01-02T10:35:28.130Z,11.5
2023-01-02T10:40:28.112Z,11.62
2023-01-02T10:45:28.092Z,11.75
2023-01-02T10:50:28.080Z,11.81
2023-01-02T10:55:28.077Z,12.37
2023-01-02T11:00:28.732Z,12.43
2023-01-02T11:05:28.065Z,12.5
2023-01-02T11:10:28.078Z,12.56
2023-01-02T11:15:28.049Z,12.75
2023-01-02T11:20:28.055Z,13.12
2023-01-02T11:25:28.052Z,13.25
2023-01-02T11:30:28.040Z,13.43
2023-01-02T11:35:28.049Z,13.43
2023-01-02T11:40:28.035Z,13.56
2023-01-02T11:45:28.148Z,13.68
2023-01-02T11:50:28.006Z,13.75
2023-01-02T11:55:28.022Z,13.5
2023-01-02T12:00:28.007Z,13.62
2023-01-02T12:05:28.001Z,13.87
2023-01-02T12:10:28.016Z,14.06
2023-01-02T12:15:27.976Z,14
2023-01-02T12:20:27.987Z,13.87
2023-01-02T12:25:27.972Z,13.43
2023-01-02T12:30:27.980Z,13.93
2023-01-02T12:35:27.951Z,13.68
2023-01-02T12:40:27.993Z,13.5
2023-01-02T12:45:27.959Z,13.37
2023-01-02T12:50:27.953Z,13.5
2023-01-02T12:55:27.946Z,13.81
2023-01-02T13:00:27.932Z,13.68
2023-01-02T13:05:27.942Z,13.87
2023-01-02T13:10:27.945Z,13.56
2023-01-02T13:15:27.933Z,13
2023-01-02T13:20:27.933Z,12.81
2023-01-02T13:25:27.899Z,12.62
2023-01-02T13:30:27.933Z,12.18
2023-01-02T13:35:27.889Z,12.18
2023-01-02T13:40:27.896Z,11.87
2023-01-02T13:50:27.873Z,11.37
2023-01-02T13:55:27.888Z,11.43
2023-01-02T14:00:27.859Z,11.5
2023-01-02T14:05:27.872Z,11.31
2023-01-02T14:10:27.893Z,10.87
2023-01-02T14:15:27.939Z,10.81
2023-01-02T14:20:27.910Z,10.56
2023-01-02T14:25:27.843Z,10.56
2023-01-02T14:30:27.845Z,10.37
2023-01-02T14:35:27.845Z,10.31
2023-01-02T14:40:27.828Z,10.31
2023-01-02T14:45:27.822Z,9.93
2023-01-02T14:50:27.819Z,9.93
2023-01-02T14:55:27.823Z,9.62
2023-01-02T15:00:27.806Z,9.87
2023-01-02T15:05:27.813Z,9.62
2023-01-02T15:10:27.805Z,9.87
2023-01-02T15:15:27.816Z,9.25
2023-01-02T15:20:27.789Z,9.06
2023-01-02T15:25:27.785Z,8.87
2023-01-02T15:30:27.774Z,8.68
2023-01-02T15:35:27.782Z,8.37
2023-01-02T15:40:27.797Z,8.56
2023-01-02T15:45:27.766Z,8.56
2023-01-02T15:50:27.789Z,8.87
2023-01-02T15:55:27.768Z,9
2023-01-02T16:00:27.761Z,8.93
2023-01-02T16:05:27.724Z,8.68
2023-01-02T16:10:27.747Z,8.81
2023-01-02T16:15:27.729Z,8.56
2023-01-02T16:20:27.740Z,8.37
2023-01-02T16:25:27.722Z,8.31
2023-01-02T16:30:28.377Z,8.18
2023-01-02T16:35:27.706Z,7.68
2023-01-02T16:40:59.149Z,7.68
2023-01-02T16:45:27.766Z,7.31
2023-01-02T16:50:27.695Z,7.12
2023-01-02T16:55:27.698Z,7
2023-01-02T17:05:27.679Z,7
2023-01-02T17:10:27.688Z,6.93
2023-01-02T17:30:27.662Z,7
2023-01-02T17:35:27.651Z,6.68
2023-01-02T17:40:27.689Z,6.62
2023-01-02T17:45:27.687Z,6.37
2023-01-02T17:50:27.672Z,6.5
2023-01-02T17:55:27.653Z,6.56
2023-01-02T18:00:27.717Z,6.31
2023-01-02T18:05:27.639Z,6.56
2023-01-02T18:10:32.784Z,6.18
2023-01-02T18:15:27.714Z,6.12
2023-01-02T18:20:27.652Z,6.43
2023-01-02T18:25:27.663Z,6.75
2023-01-02T18:30:27.740Z,6.81
2023-01-02T18:35:55.906Z,6.81
2023-01-02T18:40:28.198Z,6.56
2023-01-02T18:45:27.600Z,7.12
2023-01-02T18:50:27.625Z,7.87
2023-01-02T18:55:27.592Z,8
2023-01-02T19:00:27.593Z,8.5
2023-01-02T19:05:27.578Z,8.75
2023-01-02T19:10:31.332Z,8.37
2023-01-02T19:15:27.591Z,8.62
2023-01-02T19:20:27.569Z,8.93
2023-01-02T19:25:27.583Z,9.31
2023-01-02T19:30:27.590Z,9.12
2023-01-02T19:35:27.560Z,8.81
2023-01-02T19:40:27.548Z,8.56
2023-01-02T19:45:27.583Z,8.31
2023-01-02T19:50:27.544Z,8.25
2023-01-02T19:55:27.561Z,7.68
2023-01-02T20:00:27.562Z,7.43
2023-01-02T20:05:27.547Z,7.43
2023-01-02T20:10:27.537Z,6.93
2023-01-02T20:15:27.576Z,6.93
2023-01-02T20:20:27.548Z,6.56
2023-01-02T20:25:27.536Z,6.31
2023-01-02T20:30:27.528Z,6.62
2023-01-02T20:35:27.509Z,7.25
2023-01-02T20:40:27.499Z,7.12
2023-01-02T20:45:27.507Z,7.62
2023-01-02T20:50:27.528Z,8.25
2023-01-02T20:55:27.516Z,8.5
2023-01-02T21:00:27.499Z,8.31
2023-01-02T21:05:27.501Z,7.75
2023-01-02T21:10:27.495Z,7.56
2023-01-02T21:15:27.465Z,7.68
2023-01-02T21:20:27.495Z,7.18
2023-01-02T21:25:27.484Z,7.18
2023-01-02T21:30:27.465Z,6.56
2023-01-02T21:35:27.470Z,6.25
2023-01-02T21:40:27.470Z,6.68
2023-01-02T21:45:27.491Z,6.68
2023-01-02T21:50:27.481Z,6.87
2023-01-02T21:55:27.444Z,6.93
2023-01-02T22:00:27.650Z,7.37
2023-01-02T22:05:27.445Z,7.5
2023-01-02T22:10:27.439Z,7.62
2023-01-02T22:15:27.425Z,7.56
2023-01-02T22:20:27.422Z,7.31
2023-01-02T22:25:27.442Z,7.43
2023-01-02T22:30:33.829Z,7.5
2023-01-02T22:35:27.401Z,7.62
2023-01-02T22:40:27.413Z,8
2023-01-02T22:45:27.410Z,9
2023-01-02T22:50:27.384Z,9.25
2023-01-02T22:55:27.375Z,9.31
2023-01-02T23:00:27.396Z,9.37
2023-01-02T23:05:27.392Z,9.81
2023-01-02T23:10:27.373Z,9.87
2023-01-02T23:15:27.389Z,9.68
2023-01-02T23:20:27.408Z,9.87
2023-01-02T23:25:27.348Z,9.87
2023-01-02T23:30:27.369Z,9.81
2023-01-02T23:35:27.361Z,9.87
2023-01-02T23:40:32.274Z,9.68
2023-01-02T23:45:27.378Z,9.75
2023-01-02T23:50:27.345Z,9.68
2023-01-02T23:55:27.356Z,9.62
